Time;durP1;ratioP1;P1;durP2;ratioP2;P2;SDS_P1;SDS_P2;PMS_P1;PMS_P2;Temp;Humidity;BMP_temperature;BMP_pressure;BME280_temperature;BME280_humidity;BME280_pressure;Samples;Min_cycle;Max_cycle;Signal;HPM_P1;HPM_P2
2023/10/28 00:01:13;;;;;;;17.80;7.70;;;;;;;8.81;100.00;99166.78;4993013;28;20081;-60
2023/10/28 00:03:39;;;;;;;17.20;7.95;;;;;;;8.81;100.00;99172.03;4993721;28;20037;-60
2023/10/28 00:06:05;;;;;;;15.55;7.55;;;;;;;9.13;100.00;99231.56;4993925;28;20054;-60
2023/10/28 00:08:30;;;;;;;21.48;7.20;;;;;;;9.19;100.00;99244.38;4994034;28;20031;-60
2023/10/28 00:10:56;;;;;;;18.33;7.68;;;;;;;8.81;100.00;99178.13;4993168;28;20121;-60
2023/10/28 00:13:21;;;;;;;18.45;8.00;;;;;;;8.79;100.00;99172.09;4994008;28;20039;-60
2023/10/28 00:15:46;;;;;;;15.10;7.30;;;;;;;8.84;100.00;99182.38;5009194;28;20034;-60
2023/10/28 00:18:12;;;;;;;18.48;8.02;;;;;;;8.77;100.00;99163.47;4992736;28;20031;-60
2023/10/28 00:20:37;;;;;;;22.17;7.75;;;;;;;8.75;100.00;99167.09;4994061;28;20038;-60
2023/10/28 00:23:06;;;;;;;20.23;7.53;;;;;;;9.08;100.00;99243.25;4992923;28;20065;-60
2023/10/28 00:25:32;;;;;;;17.58;7.82;;;;;;;9.02;100.00;99247.00;4993018;28;20031;-60
2023/10/28 00:27:58;;;;;;;20.42;8.70;;;;;;;8.62;100.00;99189.63;4993882;28;20092;-60
2023/10/28 00:30:24;;;;;;;12.57;6.97;;;;;;;8.49;100.00;99176.28;4993796;28;20093;-60
2023/10/28 00:32:54;;;;;;;18.50;8.10;;;;;;;8.99;100.00;99253.25;5008849;28;20030;-60
2023/10/28 00:35:21;;;;;;;21.25;8.68;;;;;;;8.98;100.00;99258.59;4994005;28;20070;-60
2023/10/28 00:37:47;;;;;;;16.98;8.35;;;;;;;8.90;100.00;99258.16;4992453;28;20045;-60
2023/10/28 00:40:13;;;;;;;23.85;9.00;;;;;;;8.76;100.00;99240.47;4992728;28;20038;-60
2023/10/28 00:42:38;;;;;;;19.48;8.40;;;;;;;8.82;100.00;99261.13;4993652;28;20030;-60
2023/10/28 00:45:05;;;;;;;19.42;8.85;;;;;;;8.84;100.00;99264.53;4993578;28;20474;-60
2023/10/28 00:47:33;;;;;;;22.52;9.75;;;;;;;8.44;100.00;99202.72;4992310;28;20030;-60
2023/10/28 00:49:59;;;;;;;21.80;8.70;;;;;;;8.84;100.00;99261.91;4993624;28;20061;-60
2023/10/28 00:52:24;;;;;;;22.77;9.80;;;;;;;8.58;100.00;99209.91;4993446;28;20038;-60
2023/10/28 00:54:51;;;;;;;28.42;9.73;;;;;;;8.61;100.00;99214.97;5008700;28;20093;-60
2023/10/28 00:57:17;;;;;;;26.88;9.88;;;;;;;8.44;100.00;99186.13;4992632;28;20073;-60
2023/10/28 00:59:43;;;;;;;17.23;9.20;;;;;;;8.76;100.00;99234.34;5008418;28;20046;-60
2023/10/28 01:02:10;;;;;;;18.15;9.13;;;;;;;8.77;100.00;99255.28;5008348;28;20030;-60
2023/10/28 01:04:35;;;;;;;23.85;9.45;;;;;;;8.68;100.00;99252.25;5008270;28;20038;-60
2023/10/28 01:07:01;;;;;;;21.35;9.82;;;;;;;8.26;100.00;99193.09;4992959;28;20172;-60
2023/10/28 01:09:26;;;;;;;26.92;10.57;;;;;;;8.24;100.00;99205.44;4992009;28;20505;-60
2023/10/28 01:11:54;;;;;;;30.17;10.02;;;;;;;8.45;100.00;99233.28;4991418;28;20030;-60
2023/10/28 01:14:19;;;;;;;30.98;10.57;;;;;;;8.18;100.00;99189.16;4991797;28;20169;-60
2023/10/28 01:16:45;;;;;;;26.40;10.57;;;;;;;8.55;100.00;99245.94;4993305;28;20536;-60
2023/10/28 01:19:10;;;;;;;23.92;10.13;;;;;;;8.54;100.00;99245.09;4993241;28;20035;-60
2023/10/28 01:21:36;;;;;;;23.35;11.18;;;;;;;8.16;100.00;99177.91;4991940;28;20042;-60
2023/10/28 01:24:01;;;;;;;27.70;10.13;;;;;;;8.20;100.00;99179.47;4993113;28;20035;-60
2023/10/28 01:26:27;;;;;;;24.33;10.48;;;;;;;8.23;100.00;99182.75;4992971;28;20030;-61
2023/10/28 01:28:54;;;;;;;26.63;10.82;;;;;;;8.54;100.00;99231.13;4991788;28;20057;-60
2023/10/28 01:31:21;;;;;;;34.55;10.55;;;;;;;8.35;100.00;99181.34;4991601;28;20030;-61
2023/10/28 01:33:48;;;;;;;30.95;11.45;;;;;;;8.78;100.00;99243.03;4991261;28;20065;-60
2023/10/28 01:36:15;;;;;;;26.75;11.13;;;;;;;8.80;100.00;99235.91;4992550;28;20125;-60
2023/10/28 01:38:42;;;;;;;28.65;11.20;;;;;;;8.89;100.00;99251.19;4991257;28;20493;-60
2023/10/28 01:41:07;;;;;;;24.83;10.70;;;;;;;8.95;100.00;99237.75;4991533;28;20441;-60
2023/10/28 01:43:32;;;;;;;25.88;11.18;;;;;;;8.64;100.00;99179.91;4992667;28;20046;-60
2023/10/28 01:45:58;;;;;;;26.73;12.23;;;;;;;8.95;100.00;99230.75;4991884;28;20093;-60
2023/10/28 01:48:23;;;;;;;25.13;11.88;;;;;;;8.90;100.00;99205.66;4992697;28;20034;-60
2023/10/28 01:50:48;;;;;;;29.65;12.85;;;;;;;9.20;100.00;99227.69;4992850;28;20125;-60
2023/10/28 01:53:14;;;;;;;33.22;13.70;;;;;;;9.26;100.00;99232.63;4992936;28;20062;-60
2023/10/28 01:55:39;;;;;;;37.50;13.90;;;;;;;9.01;100.00;99188.44;4992987;28;20121;-60
2023/10/28 01:58:05;;;;;;;22.88;11.27;;;;;;;9.05;100.00;99184.72;4992548;28;20117;-60
2023/10/28 02:00:30;;;;;;;30.77;13.13;;;;;;;9.12;100.00;99168.63;4991597;28;20042;-60
2023/10/28 02:03:00;;;;;;;29.33;13.10;;;;;;;9.52;100.00;99241.75;4992781;28;20070;-60
2023/10/28 02:05:25;;;;;;;30.45;14.07;;;;;;;9.19;100.00;99175.28;4991345;28;20445;-60
2023/10/28 02:07:51;;;;;;;30.50;12.68;;;;;;;9.25;100.00;99178.41;4992568;28;20085;-60
2023/10/28 02:10:16;;;;;;;31.02;13.73;;;;;;;9.57;100.00;99232.69;5007710;28;20045;-60
2023/10/28 02:12:41;;;;;;;25.40;12.30;;;;;;;9.28;100.00;99178.25;5007455;28;20050;-60
2023/10/28 02:15:08;;;;;;;27.73;13.18;;;;;;;9.35;100.00;99182.25;4992689;28;20506;-60
2023/10/28 02:17:35;;;;;;;27.70;13.13;;;;;;;9.65;100.00;99234.91;5006708;28;20081;-60
2023/10/28 02:20:03;;;;;;;25.42;12.70;;;;;;;9.31;100.00;99172.81;4992415;28;20104;-60
2023/10/28 02:22:29;;;;;;;32.63;12.70;;;;;;;9.66;100.00;99227.88;4992382;28;20526;-60
2023/10/28 02:24:54;;;;;;;28.00;11.27;;;;;;;9.55;100.00;99208.28;4992525;28;20142;-61
2023/10/28 02:27:19;;;;;;;26.30;11.55;;;;;;;9.76;100.00;99229.91;4992664;28;20394;-61
2023/10/28 02:29:45;;;;;;;22.58;11.13;;;;;;;9.81;100.00;99227.03;4992462;28;20466;-60
2023/10/28 02:32:10;;;;;;;20.15;11.25;;;;;;;9.45;100.00;99158.97;4991933;28;20046;-60
2023/10/28 02:34:36;;;;;;;25.27;11.82;;;;;;;9.65;100.00;99182.38;4973275;28;20109;-60
2023/10/28 02:37:01;;;;;;;25.92;12.25;;;;;;;9.91;100.00;99222.97;4971917;28;20038;-61
2023/10/28 02:39:27;;;;;;;26.23;11.10;;;;;;;9.86;100.00;99225.88;4973218;28;20039;-60
2023/10/28 02:41:53;;;;;;;23.85;11.27;;;;;;;9.44;100.00;99152.00;4972592;28;20046;-60
2023/10/28 02:44:18;;;;;;;20.10;10.40;;;;;;;9.67;100.00;99198.03;4973731;28;20038;-60
2023/10/28 02:46:44;;;;;;;21.98;10.50;;;;;;;9.77;100.00;99215.00;4975322;28;20041;-61
2023/10/28 02:49:10;;;;;;;24.45;10.35;;;;;;;9.77;100.00;99212.38;4978846;28;20091;-60
2023/10/28 02:51:35;;;;;;;18.55;10.57;;;;;;;9.72;100.00;99206.53;4995738;28;20044;-61
2023/10/28 02:54:01;;;;;;;23.52;11.65;;;;;;;9.73;100.00;99214.31;4995709;28;20048;-60
2023/10/28 02:56:27;;;;;;;17.13;9.90;;;;;;;9.77;100.00;99217.63;4995433;28;20439;-61
2023/10/28 02:58:53;;;;;;;20.23;10.52;;;;;;;9.74;100.00;99210.78;4995539;28;20037;-60
2023/10/28 03:01:18;;;;;;;17.70;10.50;;;;;;;9.78;100.00;99220.16;4988388;28;20458;-60
2023/10/28 03:03:44;;;;;;;21.67;10.85;;;;;;;9.85;100.00;99215.44;4983702;28;20076;-61
2023/10/28 03:06:10;;;;;;;16.20;9.93;;;;;;;9.85;100.00;99215.44;4991923;28;20096;-60
2023/10/28 03:08:35;;;;;;;30.38;12.63;;;;;;;9.93;100.00;99229.00;4991845;28;20117;-60
2023/10/28 03:11:01;;;;;;;19.70;10.40;;;;;;;9.60;100.00;99169.47;4992316;28;20181;-61
2023/10/28 03:13:26;;;;;;;22.35;11.48;;;;;;;9.99;100.00;99237.41;4992208;28;20039;-61
2023/10/28 03:15:52;;;;;;;17.33;10.65;;;;;;;10.01;100.00;99226.81;4994219;28;20042;-60
2023/10/28 03:18:17;;;;;;;18.02;10.80;;;;;;;9.63;100.00;99167.63;4991220;28;20426;-60
2023/10/28 03:20:42;;;;;;;17.75;9.13;;;;;;;9.63;100.00;99156.16;4984195;28;20050;-60
2023/10/28 03:23:08;;;;;;;22.30;9.35;;;;;;;9.98;100.00;99221.72;4994324;28;20501;-60
2023/10/28 03:25:33;;;;;;;12.60;8.30;;;;;;;10.00;100.00;99230.38;4980633;28;20041;-60
2023/10/28 03:28:02;;;;;;;17.35;9.10;;;;;;;9.57;100.00;99143.38;4980061;28;20462;-60
2023/10/28 03:30:27;;;;;;;14.25;8.70;;;;;;;9.89;100.00;99207.31;4995195;28;20042;-61
2023/10/28 03:32:52;;;;;;;13.98;8.85;;;;;;;9.56;100.00;99146.94;4993555;28;20512;-60
2023/10/28 03:35:18;;;;;;;13.32;7.60;;;;;;;9.98;100.00;99216.47;5009048;28;20077;-60
2023/10/28 03:37:44;;;;;;;16.90;9.75;;;;;;;9.64;100.00;99151.78;4994046;28;20034;-60
2023/10/28 03:40:10;;;;;;;16.38;7.90;;;;;;;9.87;100.00;99192.53;4993370;28;20042;-61
2023/10/28 03:42:36;;;;;;;10.88;7.22;;;;;;;9.65;100.00;99153.47;4994447;28;20035;-61
2023/10/28 03:45:05;;;;;;;13.02;7.63;;;;;;;9.89;100.00;99180.19;4994731;28;20077;-61
2023/10/28 03:47:31;;;;;;;9.68;6.68;;;;;;;10.08;100.00;99233.41;5009908;28;20042;-60
2023/10/28 03:49:56;;;;;;;9.52;5.95;;;;;;;10.02;100.00;99215.34;4993499;28;20084;-60
2023/10/28 03:52:21;;;;;;;10.45;6.32;;;;;;;9.97;100.00;99199.00;4994432;28;20041;-60
2023/10/28 03:54:47;;;;;;;8.88;5.78;;;;;;;9.75;100.00;99164.34;4994039;28;20075;-60
2023/10/28 03:57:12;;;;;;;11.27;6.18;;;;;;;9.68;100.00;99145.44;4994640;28;20391;-60
2023/10/28 03:59:37;;;;;;;11.07;6.53;;;;;;;9.84;100.00;99169.06;4994553;28;20030;-60
2023/10/28 04:02:03;;;;;;;8.68;6.40;;;;;;;10.06;100.00;99203.72;4993183;28;20038;-60
2023/10/28 04:04:29;;;;;;;12.52;6.07;;;;;;;10.07;100.00;99194.88;4994315;28;20044;-61
2023/10/28 04:06:55;;;;;;;7.25;5.20;;;;;;;9.81;100.00;99156.06;4993044;28;20410;-60
2023/10/28 04:09:21;;;;;;;10.82;5.65;;;;;;;10.06;100.00;99194.06;4994080;28;20042;-61
2023/10/28 04:11:46;;;;;;;7.10;5.40;;;;;;;9.89;100.00;99156.53;4993116;28;20041;-61
2023/10/28 04:14:12;;;;;;;7.28;6.03;;;;;;;10.10;100.00;99194.72;4994452;28;20105;-61
2023/10/28 04:16:38;;;;;;;10.55;6.63;;;;;;;9.68;100.00;99119.16;4994431;28;20035;-60
2023/10/28 04:19:04;;;;;;;13.02;6.65;;;;;;;10.04;100.00;99201.16;5008796;28;20038;-60
2023/10/28 04:21:29;;;;;;;12.25;5.95;;;;;;;9.97;100.00;99180.59;4992912;28;20065;-60
2023/10/28 04:23:55;;;;;;;10.90;5.63;;;;;;;9.92;100.00;99172.97;4991454;28;20042;-60
2023/10/28 04:26:20;;;;;;;11.52;6.20;;;;;;;9.63;100.00;99127.28;4993779;28;20038;-61
2023/10/28 04:28:45;;;;;;;15.98;7.13;;;;;;;10.06;100.00;99188.81;4993846;28;20035;-60
2023/10/28 04:31:11;;;;;;;10.70;7.40;;;;;;;10.08;100.00;99186.94;4993849;28;20038;-61
2023/10/28 04:33:36;;;;;;;13.15;8.18;;;;;;;10.09;100.00;99193.03;4993784;28;20551;-60
2023/10/28 04:36:01;;;;;;;15.57;8.93;;;;;;;9.71;100.00;99132.13;4993959;28;20042;-61
2023/10/28 04:38:27;;;;;;;13.63;9.45;;;;;;;9.75;100.00;99135.44;4992590;28;20465;-60
2023/10/28 04:40:52;;;;;;;14.68;9.35;;;;;;;10.08;100.00;99192.19;4993653;28;20555;-60
2023/10/28 04:43:19;;;;;;;14.20;9.68;;;;;;;9.80;100.00;99139.50;4993732;28;20113;-60
2023/10/28 04:45:45;;;;;;;15.55;9.55;;;;;;;9.97;100.00;99167.44;4993604;28;20387;-60
2023/10/28 04:48:11;;;;;;;13.45;9.70;;;;;;;10.11;100.00;99185.91;4993503;28;20066;-61
2023/10/28 04:50:37;;;;;;;16.45;9.38;;;;;;;10.03;100.00;99162.69;4993499;28;20126;-60
2023/10/28 04:53:02;;;;;;;13.35;8.10;;;;;;;9.84;100.00;99134.88;4993512;28;20097;-60
2023/10/28 04:55:28;;;;;;;15.80;9.13;;;;;;;9.79;100.00;99121.16;4991993;28;20502;-61
2023/10/28 04:57:53;;;;;;;14.77;8.60;;;;;;;10.14;100.00;99177.88;4993575;28;20034;-61
2023/10/28 05:00:18;;;;;;;12.80;8.75;;;;;;;9.82;100.00;99110.50;4993465;28;20048;-61
2023/10/28 05:02:44;;;;;;;13.52;8.48;;;;;;;10.15;100.00;99172.56;4993418;28;20092;-60
2023/10/28 05:05:09;;;;;;;10.32;8.75;;;;;;;9.76;100.00;99103.78;4993495;28;20429;-60
2023/10/28 05:07:35;;;;;;;13.98;8.02;;;;;;;10.16;100.00;99165.50;5007638;28;20061;-60
2023/10/28 05:10:01;;;;;;;13.75;8.60;;;;;;;10.13;100.00;99165.66;4993134;28;20405;-61
2023/10/28 05:12:26;;;;;;;11.50;7.82;;;;;;;9.81;100.00;99106.16;4990842;28;20045;-60
2023/10/28 05:14:51;;;;;;;14.57;8.35;;;;;;;10.14;100.00;99162.97;5008434;28;20036;-61
2023/10/28 05:17:17;;;;;;;13.45;9.02;;;;;;;10.05;100.00;99158.19;4993223;28;20038;-60
2023/10/28 05:19:42;;;;;;;17.85;9.68;;;;;;;10.13;100.00;99176.19;4992829;28;20073;-60
2023/10/28 05:22:08;;;;;;;14.77;9.40;;;;;;;9.75;100.00;99107.34;4992862;28;20077;-61
2023/10/28 05:24:33;;;;;;;14.68;8.95;;;;;;;10.10;100.00;99165.81;4992760;28;20194;-60
2023/10/28 05:26:58;;;;;;;16.67;9.10;;;;;;;9.81;100.00;99108.78;4992196;28;20371;-60
2023/10/28 05:29:24;;;;;;;15.18;9.15;;;;;;;10.15;100.00;99169.06;4992855;28;20041;-61
2023/10/28 05:31:49;;;;;;;13.82;9.25;;;;;;;9.86;100.00;99112.03;4992785;28;20030;-61
2023/10/28 05:34:15;;;;;;;16.27;9.70;;;;;;;9.77;100.00;99099.41;4991793;28;20038;-60
2023/10/28 05:36:40;;;;;;;13.02;8.57;;;;;;;9.86;100.00;99117.28;4992663;28;20034;-61
2023/10/28 05:39:07;;;;;;;14.30;9.23;;;;;;;10.20;100.00;99179.31;4992661;28;20390;-60
2023/10/28 05:41:32;;;;;;;15.20;9.07;;;;;;;9.83;100.00;99106.94;5007026;28;20034;-61
2023/10/28 05:43:58;;;;;;;14.98;8.10;;;;;;;10.20;100.00;99163.53;4992796;28;20042;-61
2023/10/28 05:46:23;;;;;;;15.18;9.43;;;;;;;9.96;100.00;99124.53;4992731;28;20040;-60
2023/10/28 05:48:50;;;;;;;16.00;8.45;;;;;;;10.22;100.00;99169.53;4992742;28;20390;-61
2023/10/28 05:51:16;;;;;;;15.48;8.63;;;;;;;9.85;100.00;99097.19;5007803;28;20034;-61
2023/10/28 05:53:41;;;;;;;14.18;9.57;;;;;;;10.14;100.00;99144.56;4993130;28;20061;-60
2023/10/28 05:56:07;;;;;;;14.23;8.02;;;;;;;10.16;100.00;99142.69;4992941;28;20035;-60
2023/10/28 05:58:32;;;;;;;16.35;9.40;;;;;;;10.24;100.00;99158.03;4991469;28;20492;-61
2023/10/28 06:00:59;;;;;;;16.52;8.55;;;;;;;10.28;100.00;99156.91;4992426;28;20065;-61
2023/10/28 06:03:26;;;;;;;15.68;9.07;;;;;;;10.24;100.00;99157.19;4992437;28;20537;-60
2023/10/28 06:05:52;;;;;;;11.05;8.23;;;;;;;10.05;100.00;99116.13;4992534;28;20034;-61
2023/10/28 06:08:17;;;;;;;12.73;8.88;;;;;;;10.00;100.00;99112.06;4992376;28;20076;-60
2023/10/28 06:10:45;;;;;;;12.73;8.73;;;;;;;9.98;100.00;99098.19;4992819;28;20041;-61
2023/10/28 06:13:11;;;;;;;20.20;10.45;;;;;;;9.99;100.00;99105.13;5006328;28;20471;-60
2023/10/28 06:15:37;;;;;;;18.83;9.60;;;;;;;10.15;100.00;99138.38;4991442;28;20093;-61
2023/10/28 06:18:03;;;;;;;22.38;11.23;;;;;;;10.24;100.00;99144.88;4992922;28;20250;-60
2023/10/28 06:20:28;;;;;;;16.33;9.70;;;;;;;10.30;100.00;99151.56;4995977;28;20528;-61
2023/10/28 06:22:53;;;;;;;13.15;10.70;;;;;;;9.99;100.00;99100.72;4996218;28;20043;-61
2023/10/28 06:25:20;;;;;;;17.70;10.88;;;;;;;10.40;100.00;99171.13;4996299;28;20049;-60
2023/10/28 06:27:45;;;;;;;13.73;10.32;;;;;;;10.29;100.00;99155.13;4995121;28;20038;-60
2023/10/28 06:30:11;;;;;;;19.08;10.60;;;;;;;10.22;100.00;99138.84;4995906;28;20496;-61
2023/10/28 06:32:38;;;;;;;15.77;11.63;;;;;;;10.38;100.00;99167.75;4993754;28;20049;-61
2023/10/28 06:35:04;;;;;;;21.08;11.60;;;;;;;10.00;100.00;99105.03;4995862;28;20034;-61
2023/10/28 06:37:30;;;;;;;14.40;10.18;;;;;;;10.05;100.00;99115.28;4994595;28;20074;-59
2023/10/28 06:39:55;;;;;;;15.55;10.20;;;;;;;10.35;100.00;99153.00;4996146;28;20072;-59
2023/10/28 06:42:21;;;;;;;18.48;10.35;;;;;;;10.43;100.00;99170.94;4996042;28;20065;-60
2023/10/28 06:44:46;;;;;;;16.63;10.20;;;;;;;10.01;100.00;99095.38;4995945;28;20030;-59
2023/10/28 06:47:11;;;;;;;18.98;10.32;;;;;;;10.45;100.00;99179.63;4994627;28;20443;-59
2023/10/28 06:49:37;;;;;;;16.63;9.27;;;;;;;10.12;100.00;99111.38;4994390;28;20042;-59
2023/10/28 06:52:03;;;;;;;16.60;9.10;;;;;;;10.45;100.00;99177.81;4995424;28;20043;-59
2023/10/28 06:54:28;;;;;;;16.95;8.77;;;;;;;10.49;100.00;99170.59;4995639;28;20035;-59
2023/10/28 06:56:54;;;;;;;18.38;9.13;;;;;;;10.55;100.00;99172.88;4995620;28;20038;-61
2023/10/28 06:59:19;;;;;;;18.77;8.60;;;;;;;10.47;100.00;99156.69;4995693;28;20036;-61
2023/10/28 07:01:45;;;;;;;15.40;8.85;;;;;;;10.55;100.00;99176.34;4995399;28;20034;-58
2023/10/28 07:04:12;;;;;;;18.70;9.10;;;;;;;10.25;100.00;99116.78;4995313;28;20076;-58
2023/10/28 07:06:39;;;;;;;16.98;10.15;;;;;;;10.15;100.00;99105.97;5008676;28;20046;-61
2023/10/28 07:09:04;;;;;;;14.43;8.43;;;;;;;10.47;100.00;99154.91;4994536;28;20398;-59
2023/10/28 07:11:30;;;;;;;17.20;7.90;;;;;;;10.24;100.00;99125.63;4995449;28;20034;-59
2023/10/28 07:13:55;;;;;;;12.23;8.05;;;;;;;10.58;100.00;99176.19;4995097;28;20042;-59
2023/10/28 07:16:20;;;;;;;15.60;7.55;;;;;;;10.62;100.00;99169.78;4994192;28;20038;-59
2023/10/28 07:18:46;;;;;;;17.60;7.63;;;;;;;10.59;100.00;99164.72;4995286;28;20117;-61
2023/10/28 07:21:12;;;;;;;15.05;7.95;;;;;;;10.69;100.00;99178.16;4995019;28;20042;-59
2023/10/28 07:23:37;;;;;;;16.55;9.02;;;;;;;10.34;100.00;99111.84;5009074;28;20039;-59
2023/10/28 07:26:02;;;;;;;16.08;7.18;;;;;;;10.30;100.00;99099.81;5010279;28;20038;-59
2023/10/28 07:28:33;;;;;;;15.30;7.32;;;;;;;10.77;100.00;99183.81;4995036;28;20381;-59
2023/10/28 07:30:59;;;;;;;13.57;6.85;;;;;;;10.79;100.00;99187.22;4994153;28;20030;-58
2023/10/28 07:33:25;;;;;;;10.57;5.95;;;;;;;10.81;100.00;99190.59;5008176;28;20456;-58
2023/10/28 07:35:51;;;;;;;13.50;7.55;;;;;;;10.84;100.00;99195.69;4994237;28;20050;-59
2023/10/28 07:38:16;;;;;;;12.00;6.50;;;;;;;10.93;100.00;99191.66;4992070;28;20031;-59
2023/10/28 07:40:42;;;;;;;12.95;5.70;;;;;;;10.54;100.00;99127.28;5009092;28;20042;-58
2023/10/28 07:43:10;;;;;;;12.05;6.05;;;;;;;10.90;100.00;99189.22;5009745;28;20034;-59
2023/10/28 07:45:35;;;;;;;13.10;6.28;;;;;;;10.99;100.00;99193.94;4994611;28;20099;-59
2023/10/28 07:48:01;;;;;;;12.38;5.57;;;;;;;10.97;100.00;99187.91;4993331;28;20062;-59
2023/10/28 07:50:26;;;;;;;12.68;5.65;;;;;;;10.67;100.00;99136.16;4994737;28;20065;-59
2023/10/28 07:52:51;;;;;;;13.00;6.70;;;;;;;11.02;100.00;99191.97;5009815;28;20039;-59
2023/10/28 07:55:17;;;;;;;15.05;5.82;;;;;;;10.73;100.00;99145.47;4993573;28;20124;-59
2023/10/28 07:57:43;;;;;;;13.20;5.35;;;;;;;11.06;100.00;99192.63;4994479;28;20501;-59
2023/10/28 08:00:11;;;;;;;11.73;5.32;;;;;;;11.10;100.00;99197.59;4994274;28;20058;-59
2023/10/28 08:02:36;;;;;;;11.45;5.55;;;;;;;10.79;100.00;99142.47;4994287;28;20471;-59
2023/10/28 08:05:03;;;;;;;16.33;6.13;;;;;;;11.12;100.00;99194.91;4994048;28;20125;-59
2023/10/28 08:07:28;;;;;;;9.90;4.95;;;;;;;11.05;100.00;99197.03;4994038;28;20105;-59
2023/10/28 08:09:53;;;;;;;10.60;4.90;;;;;;;11.11;100.00;99211.63;4994067;28;20266;-59
2023/10/28 08:12:19;;;;;;;12.75;5.32;;;;;;;11.14;100.00;99209.66;4993331;28;20371;-59
2023/10/28 08:14:47;;;;;;;14.10;5.75;;;;;;;10.74;100.00;99123.47;4993986;28;20038;-59
2023/10/28 08:17:12;;;;;;;11.18;5.13;;;;;;;10.98;100.00;99172.00;4994021;28;20092;-59
2023/10/28 08:19:37;;;;;;;10.90;4.70;;;;;;;11.14;100.00;99190.38;4992674;28;20034;-59
2023/10/28 08:22:03;;;;;;;12.90;4.95;;;;;;;11.22;100.00;99201.28;4994291;28;20461;-60
2023/10/28 08:24:29;;;;;;;9.63;4.22;;;;;;;11.26;100.00;99194.91;4993691;28;20045;-59
2023/10/28 08:26:56;;;;;;;9.15;4.13;;;;;;;10.94;100.00;99140.72;4993895;28;20038;-59
2023/10/28 08:29:22;;;;;;;12.23;4.47;;;;;;;11.21;100.00;99182.00;4992882;28;20515;-59
2023/10/28 08:31:48;;;;;;;12.88;4.50;;;;;;;10.99;100.00;99146.53;4993491;28;20034;-59
2023/10/28 08:34:15;;;;;;;13.10;4.32;;;;;;;11.26;100.00;99197.53;4993616;28;20470;-59
2023/10/28 08:36:41;;;;;;;16.75;4.55;;;;;;;11.13;100.00;99176.34;4992892;28;20056;-59
2023/10/28 08:39:07;;;;;;;8.07;3.67;;;;;;;11.09;100.00;99174.00;4993642;28;20509;-59
2023/10/28 08:41:33;;;;;;;11.90;4.05;;;;;;;11.32;100.00;99206.84;4993456;28;20089;-59
2023/10/28 08:44:00;;;;;;;13.95;4.43;;;;;;;11.27;100.00;99197.44;4993692;28;20034;-59
2023/10/28 08:46:26;;;;;;;12.95;4.13;;;;;;;11.00;100.00;99142.97;5008504;28;20157;-59
2023/10/28 08:48:52;;;;;;;11.05;3.97;;;;;;;11.43;100.00;99217.56;5008677;28;20070;-59
2023/10/28 08:51:18;;;;;;;9.90;3.45;;;;;;;11.11;100.00;99159.81;5007545;28;20053;-59
2023/10/28 08:53:45;;;;;;;10.35;3.85;;;;;;;11.52;100.00;99223.13;4993454;28;20034;-59
2023/10/28 08:56:12;;;;;;;5.97;3.33;;;;;;;11.55;100.00;99227.34;5008676;28;20030;-59
2023/10/28 08:58:38;;;;;;;8.82;3.53;;;;;;;11.53;100.00;99223.97;5007290;28;20037;-59
2023/10/28 09:01:04;;;;;;;11.07;3.33;;;;;;;11.21;100.00;99178.50;5008281;28;20389;-59
2023/10/28 09:03:31;;;;;;;9.13;3.38;;;;;;;11.24;100.00;99167.78;4993445;28;20035;-59
2023/10/28 09:05:59;;;;;;;13.18;3.50;;;;;;;11.30;100.00;99184.06;4991801;28;20110;-59
2023/10/28 09:08:24;;;;;;;11.50;3.20;;;;;;;11.46;100.00;99196.31;5008171;28;20037;-59
2023/10/28 09:10:50;;;;;;;12.93;3.45;;;;;;;11.78;100.00;99243.47;5008321;28;20037;-59
2023/10/28 09:13:15;;;;;;;7.32;3.20;;;;;;;11.79;100.00;99242.50;4993024;28;20108;-60
2023/10/28 09:15:41;;;;;;;8.30;3.10;;;;;;;11.81;100.00;99251.19;5007204;28;20034;-60
2023/10/28 09:18:08;;;;;;;7.32;3.72;;;;;;;11.51;100.00;99196.84;4992844;28;20030;-54
2023/10/28 09:20:37;;;;;;;9.93;2.90;;;;;;;11.41;100.00;99177.31;4993072;28;20034;-54
2023/10/28 09:23:03;;;;;;;12.20;3.10;;;;;;;11.54;100.00;99201.94;4993256;28;20045;-58
2023/10/28 09:25:28;;;;;;;7.13;2.70;;;;;;;11.94;100.00;99255.69;4992753;28;20034;-60
2023/10/28 09:27:54;;;;;;;10.38;2.80;;;;;;;12.04;100.00;99275.25;4992760;28;20065;-57
2023/10/28 09:30:19;;;;;;;5.80;2.70;;;;;;;11.76;100.00;99208.44;4992923;28;20034;-57
2023/10/28 09:32:45;;;;;;;7.20;2.70;;;;;;;11.75;100.00;99211.19;4992017;28;20039;-60
2023/10/28 09:35:11;;;;;;;8.20;2.90;;;;;;;12.20;100.00;99278.63;4992887;28;20042;-59
2023/10/28 09:37:38;;;;;;;7.53;2.85;;;;;;;12.17;100.00;99257.72;4992821;28;20394;-59
2023/10/28 09:40:10;;;;;;;5.65;2.75;;;;;;;12.23;100.00;99257.34;4992726;28;20125;-60
2023/10/28 09:42:37;;;;;;;10.38;2.85;;;;;;;11.85;100.00;99217.56;4991410;28;20474;-56
2023/10/28 09:45:05;;;;;;;7.70;2.58;;;;;;;11.97;100.00;99243.16;4992565;28;20027;-60
2023/10/28 09:47:57;;;;;;;8.27;2.30;;;;;;;11.81;100.00;99221.34;4992861;28;20038;-56
2023/10/28 09:50:25;;;;;;;8.68;2.42;;;;;;;12.12;100.00;99276.47;5007548;28;20108;-57
2023/10/28 09:52:55;;;;;;;7.30;2.60;;;;;;;12.20;100.00;99284.72;4992525;28;20049;-59
2023/10/28 09:55:41;;;;;;;7.72;2.80;;;;;;;11.89;100.00;99220.84;4995441;28;20037;-56
2023/10/28 09:58:11;;;;;;;7.75;2.80;;;;;;;12.24;100.00;99288.03;4995528;28;20100;-56
2023/10/28 10:00:37;;;;;;;6.90;2.75;;;;;;;12.17;100.00;99278.84;5011495;28;20113;-58
2023/10/28 10:03:29;;;;;;;8.88;2.88;;;;;;;12.16;100.00;99290.31;5011572;28;20085;-59
2023/10/28 10:05:54;;;;;;;4.82;2.60;;;;;;;12.16;100.00;99277.13;4995272;28;20038;-56
2023/10/28 10:08:23;;;;;;;8.23;3.15;;;;;;;11.91;100.00;99229.53;4996580;28;20517;-59
2023/10/28 10:10:50;;;;;;;6.68;2.80;;;;;;;11.90;100.00;99235.72;5011322;28;20096;-57
2023/10/28 10:13:16;;;;;;;8.48;3.00;;;;;;;11.91;100.00;99238.25;4996385;28;20044;-58
2023/10/28 10:16:03;;;;;;;6.20;2.40;;;;;;;11.93;100.00;99238.19;4996534;28;20477;-51
2023/10/28 10:18:39;;;;;;;6.88;2.85;;;;;;;12.24;100.00;99288.88;4996259;28;20353;-53
2023/10/28 10:21:07;;;;;;;10.57;3.05;;;;;;;12.37;100.00;99302.16;5009553;28;20042;-51
2023/10/28 10:23:43;;;;;;;8.10;3.15;;;;;;;12.07;100.00;99259.25;4994968;28;20089;-51
2023/10/28 10:26:21;;;;;;;8.90;2.40;;;;;;;12.39;100.00;99316.94;4996204;28;20046;-51
2023/10/28 10:28:46;;;;;;;7.68;2.55;;;;;;;11.99;100.00;99240.44;4996285;28;20049;-56
2023/10/28 10:31:12;;;;;;;6.88;2.47;;;;;;;12.43;100.00;99314.09;4996136;28;20046;-53
2023/10/28 10:33:38;;;;;;;7.63;3.47;;;;;;;12.51;100.00;99315.31;4996217;28;20062;-54
2023/10/28 10:36:08;;;;;;;9.85;2.60;;;;;;;12.66;100.00;99319.59;4994845;28;20042;-54
2023/10/28 10:38:33;;;;;;;6.22;2.20;;;;;;;12.42;100.00;99265.75;4995764;28;20124;-54
2023/10/28 10:40:59;;;;;;;7.15;2.25;;;;;;;12.60;100.00;99263.72;4994492;28;20280;-53
2023/10/28 10:43:29;;;;;;;7.80;2.22;;;;;;;13.06;100.00;99327.53;5010886;28;20092;-55
2023/10/28 10:45:55;;;;;;;5.60;1.83;;;;;;;13.18;100.00;99324.13;4995926;28;20086;-54
2023/10/28 10:48:21;;;;;;;8.38;2.60;;;;;;;12.99;100.00;99261.06;4995713;28;20032;-52
2023/10/28 10:50:47;;;;;;;5.55;1.90;;;;;;;13.26;100.00;99311.22;5010635;28;20532;-53
2023/10/28 10:53:12;;;;;;;10.15;2.17;;;;;;;13.38;100.00;99318.34;5009474;28;20482;-55
2023/10/28 10:55:38;;;;;;;6.03;1.85;;;;;;;13.17;100.00;99262.50;4995284;28;20092;-55
2023/10/28 10:58:03;;;;;;;4.82;2.20;;;;;;;13.63;100.00;99328.91;4995522;28;20118;-52
2023/10/28 11:00:29;;;;;;;5.85;1.90;;;;;;;13.30;100.00;99267.81;4995455;28;20035;-55
2023/10/28 11:02:59;;;;;;;5.90;2.28;;;;;;;13.41;100.00;99302.28;4995363;28;20045;-54
2023/10/28 11:05:28;;;;;;;9.80;2.80;;;;;;;13.24;100.00;99281.44;4994139;28;20133;-51
2023/10/28 11:07:53;;;;;;;7.88;2.75;;;;;;;13.47;100.00;99318.56;5009517;28;20078;-55
2023/10/28 11:10:19;;;;;;;7.70;1.80;;;;;;;13.48;100.00;99324.72;4994793;28;20076;-55
2023/10/28 11:12:44;;;;;;;5.43;1.90;;;;;;;13.46;100.00;99319.50;4995330;28;20223;-54
2023/10/28 11:15:13;;;;;;;5.75;1.67;;;;;;;13.16;100.00;99265.25;4995387;28;20383;-56